createdAt,value
2023-11-12T00:02:17.390Z,6.60
2023-11-12T00:04:44.800Z,6.53
2023-11-12T00:07:11.623Z,7.17
2023-11-12T00:09:40.896Z,7.10
2023-11-12T00:12:10.475Z,6.93
2023-11-12T00:14:37.351Z,7.30
2023-11-12T00:17:04.429Z,7.10
2023-11-12T00:19:34.078Z,7.37
2023-11-12T00:22:00.983Z,7.47
2023-11-12T00:24:29.522Z,6.70
2023-11-12T00:26:56.218Z,7.00
2023-11-12T00:29:23.132Z,7.17
2023-11-12T00:31:50.936Z,7.10
2023-11-12T00:34:17.889Z,6.90
2023-11-12T00:36:44.723Z,6.70
2023-11-12T00:39:11.708Z,7.70
2023-11-12T00:41:40.210Z,7.60
2023-11-12T00:44:10.180Z,8.20
2023-11-12T00:46:37.881Z,7.13
2023-11-12T00:49:08.542Z,7.33
2023-11-12T00:51:37.006Z,7.87
2023-11-12T00:54:04.092Z,7.67
2023-11-12T00:56:31.329Z,6.87
2023-11-12T00:58:58.212Z,7.13
2023-11-12T01:01:25.114Z,7.10
2023-11-12T01:03:52.152Z,7.80
2023-11-12T01:06:18.973Z,6.80
2023-11-12T01:08:46.982Z,7.83
2023-11-12T01:11:14.561Z,8.00
2023-11-12T01:13:41.439Z,7.33
2023-11-12T01:16:08.828Z,7.47
2023-11-12T01:18:36.811Z,7.30
2023-11-12T01:21:06.479Z,7.67
2023-11-12T01:23:33.277Z,7.93
2023-11-12T01:26:00.118Z,7.50
2023-11-12T01:28:31.093Z,7.47
2023-11-12T01:30:58.083Z,8.20
2023-11-12T01:33:24.892Z,8.40
2023-11-12T01:35:53.229Z,7.53
2023-11-12T01:38:20.388Z,7.63
2023-11-12T01:40:48.970Z,7.83
2023-11-12T01:43:16.400Z,8.23
2023-11-12T01:45:44.764Z,7.37
2023-11-12T01:48:13.372Z,7.10
2023-11-12T01:50:40.391Z,7.93
2023-11-12T01:53:07.090Z,7.83
2023-11-12T01:55:34.189Z,7.60
2023-11-12T01:58:02.069Z,7.80
2023-11-12T02:00:29.129Z,8.17
2023-11-12T02:02:56.899Z,7.43
2023-11-12T02:05:24.623Z,8.47
2023-11-12T02:07:52.164Z,7.73
2023-11-12T02:10:19.070Z,8.10
2023-11-12T02:12:47.794Z,7.73
2023-11-12T02:15:16.463Z,7.77
2023-11-12T02:17:46.694Z,7.63
2023-11-12T02:20:18.330Z,7.70
2023-11-12T02:22:45.637Z,8.23
2023-11-12T02:25:14.863Z,8.07
2023-11-12T02:27:41.984Z,7.73
2023-11-12T02:30:13.059Z,8.13
2023-11-12T02:32:40.625Z,8.47
2023-11-12T02:35:08.949Z,8.03
2023-11-12T02:37:36.953Z,8.47
2023-11-12T02:40:04.456Z,7.37
2023-11-12T02:42:31.805Z,7.53
2023-11-12T02:44:58.659Z,6.90
2023-11-12T02:47:26.988Z,8.27
2023-11-12T02:50:22.131Z,7.43
2023-11-12T02:52:49.107Z,7.70
2023-11-12T02:55:17.994Z,7.07
2023-11-12T02:57:46.859Z,6.37
2023-11-12T03:00:15.491Z,6.70
2023-11-12T03:02:42.701Z,6.73
2023-11-12T03:05:09.952Z,6.30
2023-11-12T03:07:37.101Z,6.47
2023-11-12T03:10:05.282Z,6.73
2023-11-12T03:12:33.442Z,6.53
2023-11-12T03:15:00.486Z,6.83
2023-11-12T03:17:28.248Z,6.43
2023-11-12T03:19:56.125Z,5.93
2023-11-12T03:22:23.450Z,7.07
2023-11-12T03:24:50.157Z,7.20
2023-11-12T03:27:18.035Z,6.93
2023-11-12T03:29:45.165Z,6.30
2023-11-12T03:32:11.919Z,6.27
2023-11-12T03:34:38.716Z,6.30
2023-11-12T03:37:05.625Z,6.30
2023-11-12T03:39:32.517Z,6.47
2023-11-12T03:41:59.560Z,6.23
2023-11-12T03:44:26.822Z,6.27
2023-11-12T03:46:53.729Z,6.30
2023-11-12T03:49:20.498Z,7.43
2023-11-12T03:51:48.502Z,7.77
2023-11-12T03:54:16.407Z,7.40
2023-11-12T03:56:43.248Z,7.93
2023-11-12T03:59:10.369Z,8.10
2023-11-12T04:01:38.147Z,8.60
2023-11-12T04:04:05.804Z,9.53
2023-11-12T04:06:32.929Z,9.60
2023-11-12T04:08:59.774Z,9.87
2023-11-12T04:11:27.319Z,10.50
2023-11-12T04:13:54.072Z,8.50
2023-11-12T04:16:21.032Z,10.30
2023-11-12T04:18:48.432Z,10.13
2023-11-12T04:21:15.264Z,10.73
2023-11-12T04:23:45.213Z,10.37
2023-11-12T04:26:12.374Z,10.70
2023-11-12T04:28:39.149Z,9.97
2023-11-12T04:31:06.559Z,10.00
2023-11-12T04:33:33.450Z,10.23
2023-11-12T04:36:00.293Z,9.93
2023-11-12T04:38:27.053Z,11.20
2023-11-12T04:40:54.629Z,10.70
2023-11-12T04:43:21.829Z,10.50
2023-11-12T04:45:48.679Z,10.83
2023-11-12T04:48:15.658Z,11.33
2023-11-12T04:50:42.768Z,10.93
2023-11-12T04:53:09.829Z,10.87
2023-11-12T04:55:36.616Z,11.17
2023-11-12T04:58:05.609Z,10.93
2023-11-12T05:00:32.448Z,11.33
2023-11-12T05:02:59.543Z,11.47
2023-11-12T05:05:26.373Z,11.40
2023-11-12T05:07:53.100Z,12.03
2023-11-12T05:10:19.973Z,11.80
2023-11-12T05:12:46.991Z,11.53
2023-11-12T05:15:13.967Z,11.60
2023-11-12T05:17:40.704Z,11.90
2023-11-12T05:20:08.702Z,11.70
2023-11-12T05:22:35.395Z,11.67
2023-11-12T05:25:02.418Z,11.07
2023-11-12T05:27:29.393Z,11.70
2023-11-12T05:29:56.380Z,11.17
2023-11-12T05:32:23.105Z,11.43
2023-11-12T05:34:51.150Z,11.97
2023-11-12T05:37:17.883Z,11.47
2023-11-12T05:39:44.714Z,12.20
2023-11-12T05:42:11.488Z,11.17
2023-11-12T05:44:38.253Z,11.23
2023-11-12T05:47:05.782Z,12.17
2023-11-12T05:49:32.563Z,12.33
2023-11-12T05:51:59.401Z,11.00
2023-11-12T05:54:26.483Z,11.73
2023-11-12T05:56:53.274Z,11.53
2023-11-12T05:59:20.026Z,11.97
2023-11-12T06:01:46.917Z,11.53
2023-11-12T06:04:13.907Z,11.43
2023-11-12T06:06:41.353Z,12.77
2023-11-12T06:09:11.294Z,12.07
2023-11-12T06:11:39.147Z,11.80
2023-11-12T06:14:05.871Z,12.60
2023-11-12T06:16:32.812Z,12.40
2023-11-12T06:18:59.492Z,12.20
2023-11-12T06:21:26.469Z,11.10
2023-11-12T06:23:53.608Z,11.80
2023-11-12T06:26:22.344Z,11.53
2023-11-12T06:28:50.040Z,11.53
2023-11-12T06:31:17.785Z,11.60
2023-11-12T06:33:45.468Z,12.27
2023-11-12T06:36:15.071Z,11.43
2023-11-12T06:38:42.537Z,11.47
2023-11-12T06:41:11.180Z,10.97
2023-11-12T06:43:38.359Z,11.37
2023-11-12T06:46:06.438Z,11.37
2023-11-12T06:48:33.272Z,10.77
2023-11-12T06:51:00.482Z,11.33
2023-11-12T06:53:27.195Z,11.37
2023-11-12T06:55:54.273Z,10.50
2023-11-12T06:58:21.298Z,9.87
2023-11-12T07:00:48.438Z,9.60
2023-11-12T07:03:15.242Z,9.13
2023-11-12T07:05:42.947Z,8.33
2023-11-12T07:08:09.764Z,8.30
2023-11-12T07:10:39.156Z,8.37
2023-11-12T07:13:06.554Z,7.50
2023-11-12T07:15:33.471Z,7.00
2023-11-12T07:18:00.274Z,6.53
2023-11-12T07:20:33.577Z,6.47
2023-11-12T07:23:01.223Z,6.30
2023-11-12T07:25:28.547Z,6.23
2023-11-12T07:27:55.444Z,7.00
2023-11-12T07:30:22.446Z,8.50
2023-11-12T07:32:49.427Z,10.50
2023-11-12T07:35:16.240Z,9.53
2023-11-12T07:37:43.331Z,7.40
2023-11-12T07:40:12.387Z,6.17
2023-11-12T07:42:40.382Z,6.27
2023-11-12T07:45:14.083Z,5.47
2023-11-12T07:47:44.123Z,5.93
2023-11-12T07:50:11.152Z,5.57
2023-11-12T07:52:37.961Z,6.33
2023-11-12T07:55:06.862Z,5.20
2023-11-12T07:57:33.994Z,5.33
2023-11-12T08:00:01.580Z,6.07
2023-11-12T08:02:40.371Z,5.83
2023-11-12T08:05:09.592Z,5.30
2023-11-12T08:07:36.922Z,4.73
2023-11-12T08:10:06.408Z,5.27
2023-11-12T08:12:33.370Z,4.70
2023-11-12T08:15:00.250Z,5.63
2023-11-12T08:17:27.212Z,5.37
2023-11-12T08:19:59.481Z,5.20
2023-11-12T08:22:27.030Z,5.60
2023-11-12T08:24:56.264Z,5.50
2023-11-12T08:27:24.051Z,4.87
2023-11-12T08:29:52.933Z,4.80
2023-11-12T08:32:19.719Z,4.97
2023-11-12T08:34:47.142Z,5.07
2023-11-12T08:37:15.706Z,6.10
2023-11-12T08:39:42.730Z,4.80
2023-11-12T08:42:09.665Z,5.67
2023-11-12T08:44:36.447Z,4.83
2023-11-12T08:47:14.802Z,5.37
2023-11-12T08:49:41.662Z,4.90
2023-11-12T08:52:08.499Z,5.13
2023-11-12T08:54:35.666Z,5.17
2023-11-12T08:57:04.387Z,5.17
2023-11-12T08:59:31.916Z,5.10
2023-11-12T09:01:58.761Z,5.77
2023-11-12T09:04:26.492Z,4.93
2023-11-12T09:06:53.567Z,4.53
2023-11-12T09:09:20.446Z,4.77
2023-11-12T09:11:47.269Z,5.43
2023-11-12T09:14:16.315Z,4.23
2023-11-12T09:16:45.741Z,4.50
2023-11-12T09:19:12.715Z,4.57
2023-11-12T09:21:39.560Z,5.03
2023-11-12T09:24:07.029Z,4.73
2023-11-12T09:26:33.741Z,4.83
2023-11-12T09:29:00.744Z,3.80
2023-11-12T09:31:28.289Z,4.37
2023-11-12T09:33:55.095Z,3.73
2023-11-12T09:36:22.225Z,4.10
2023-11-12T09:38:50.330Z,5.83
2023-11-12T09:41:22.785Z,4.60
2023-11-12T09:43:53.279Z,4.57
2023-11-12T09:46:21.676Z,4.17
2023-11-12T09:48:50.462Z,4.40
2023-11-12T09:51:17.715Z,4.20
2023-11-12T09:53:49.744Z,3.77
2023-11-12T09:56:16.546Z,4.10
2023-11-12T09:58:46.510Z,3.90
2023-11-12T10:01:14.596Z,4.37
2023-11-12T10:03:44.235Z,3.87
2023-11-12T10:06:12.245Z,4.50
2023-11-12T10:08:39.101Z,3.97
2023-11-12T10:11:21.408Z,4.00
2023-11-12T10:13:49.222Z,4.03
2023-11-12T10:16:32.218Z,3.70
2023-11-12T10:19:12.837Z,4.13
2023-11-12T10:21:57.001Z,4.30
2023-11-12T10:24:25.509Z,3.47
2023-11-12T10:26:54.632Z,3.30
2023-11-12T10:29:23.223Z,3.50
2023-11-12T10:31:50.634Z,4.03
2023-11-12T10:34:18.404Z,6.70
2023-11-12T10:37:17.462Z,7.83
2023-11-12T10:39:45.800Z,3.97
2023-11-12T10:42:26.619Z,3.43
2023-11-12T10:44:58.783Z,3.23
2023-11-12T10:47:31.406Z,2.77
2023-11-12T10:49:59.581Z,2.90
2023-11-12T10:52:28.012Z,3.60
2023-11-12T10:54:59.720Z,3.50
2023-11-12T10:57:34.156Z,4.47
2023-11-12T11:00:01.876Z,4.33
2023-11-12T11:02:34.073Z,5.17
2023-11-12T11:05:02.142Z,4.60
2023-11-12T11:07:31.302Z,10.53
2023-11-12T11:09:59.057Z,3.87
2023-11-12T11:12:26.420Z,2.93
2023-11-12T11:14:55.490Z,2.60
2023-11-12T11:17:39.699Z,4.00
2023-11-12T11:20:07.458Z,3.30
2023-11-12T11:22:36.866Z,2.50
2023-11-12T11:25:33.282Z,2.57
2023-11-12T11:28:19.979Z,2.27
2023-11-12T11:31:25.445Z,2.57
2023-11-12T11:33:52.846Z,2.20
2023-11-12T11:36:20.512Z,2.37
2023-11-12T11:39:16.609Z,2.83
2023-11-12T11:41:49.479Z,2.87
2023-11-12T11:44:45.635Z,3.30
2023-11-12T11:47:24.366Z,2.63
2023-11-12T11:50:14.429Z,2.50
2023-11-12T11:52:41.829Z,2.40
2023-11-12T11:55:13.382Z,2.00
2023-11-12T11:57:47.914Z,2.23
2023-11-12T12:00:20.669Z,1.83
2023-11-12T12:02:52.944Z,1.80
2023-11-12T12:05:34.086Z,2.13
2023-11-12T12:08:02.035Z,2.30
2023-11-12T12:10:30.853Z,1.80
2023-11-12T12:12:57.994Z,2.00
2023-11-12T12:15:25.037Z,1.53
2023-11-12T12:17:51.930Z,2.10
2023-11-12T12:20:18.705Z,1.87
2023-11-12T12:22:45.523Z,3.30
2023-11-12T12:25:12.669Z,1.80
2023-11-12T12:27:51.717Z,1.77
2023-11-12T12:30:19.416Z,2.00
2023-11-12T12:32:46.228Z,2.33
2023-11-12T12:35:22.283Z,2.03
2023-11-12T12:37:49.088Z,1.90
2023-11-12T12:40:26.753Z,1.80
2023-11-12T12:42:54.974Z,1.70
2023-11-12T12:45:22.638Z,2.10
2023-11-12T12:47:49.906Z,2.33
2023-11-12T12:50:33.662Z,2.07
2023-11-12T12:53:14.528Z,2.40
2023-11-12T12:55:45.624Z,2.40
2023-11-12T12:58:13.049Z,2.20
2023-11-12T13:00:44.678Z,2.07
2023-11-12T13:03:41.553Z,1.93
2023-11-12T13:06:13.420Z,1.77
2023-11-12T13:08:49.009Z,1.70
2023-11-12T13:11:20.604Z,2.80
2023-11-12T13:13:47.596Z,2.17
2023-11-12T13:16:15.213Z,2.50
2023-11-12T13:18:42.901Z,2.27
2023-11-12T13:21:11.453Z,2.00
2023-11-12T13:23:39.935Z,2.30
2023-11-12T13:26:07.567Z,2.30
2023-11-12T13:28:37.456Z,2.43
2023-11-12T13:31:05.917Z,3.27
2023-11-12T13:33:34.788Z,3.80
2023-11-12T13:36:04.006Z,3.70
2023-11-12T13:38:34.845Z,3.37
2023-11-12T13:41:02.365Z,2.23
2023-11-12T13:43:30.316Z,2.23
2023-11-12T13:45:57.335Z,2.30
2023-11-12T13:48:25.350Z,2.37
2023-11-12T13:50:54.392Z,2.63
2023-11-12T13:53:23.925Z,2.70
2023-11-12T13:55:59.338Z,2.53
2023-11-12T13:58:28.802Z,2.70
2023-11-12T14:00:55.837Z,5.30
2023-11-12T14:03:23.332Z,3.83
2023-11-12T14:05:50.168Z,3.30
2023-11-12T14:08:18.468Z,2.27
2023-11-12T14:10:49.361Z,2.80
2023-11-12T14:13:16.329Z,2.60
2023-11-12T14:15:43.041Z,2.70
2023-11-12T14:18:11.418Z,2.83
2023-11-12T14:20:38.246Z,2.47
2023-11-12T14:23:06.457Z,2.73
2023-11-12T14:25:34.009Z,2.70
2023-11-12T14:28:01.012Z,2.43
2023-11-12T14:30:27.825Z,6.53
2023-11-12T14:32:54.684Z,4.80
2023-11-12T14:35:24.434Z,8.10
2023-11-12T14:37:51.432Z,3.97
2023-11-12T14:40:18.462Z,6.27
2023-11-12T14:42:46.921Z,5.93
2023-11-12T14:45:24.947Z,6.03
2023-11-12T14:47:56.168Z,3.00
2023-11-12T14:50:23.342Z,2.50
2023-11-12T14:52:52.096Z,2.70
2023-11-12T14:55:25.278Z,2.30
2023-11-12T14:57:58.108Z,2.53
2023-11-12T15:00:30.010Z,2.47
2023-11-12T15:02:58.792Z,3.03
2023-11-12T15:05:26.073Z,3.30
2023-11-12T15:07:52.994Z,2.30
2023-11-12T15:10:21.982Z,2.53
2023-11-12T15:12:49.458Z,2.47
2023-11-12T15:15:17.196Z,2.20
2023-11-12T15:17:44.463Z,1.90
2023-11-12T15:20:14.212Z,2.30
2023-11-12T15:22:42.898Z,2.20
2023-11-12T15:25:10.395Z,1.90
2023-11-12T15:27:37.543Z,2.30
2023-11-12T15:30:04.897Z,2.20
2023-11-12T15:32:32.509Z,2.00
2023-11-12T15:34:59.701Z,2.63
2023-11-12T15:37:27.150Z,2.33
2023-11-12T15:39:56.348Z,3.20
2023-11-12T15:42:25.081Z,3.67
2023-11-12T15:44:52.027Z,3.67
2023-11-12T15:47:20.915Z,2.80
2023-11-12T15:49:48.093Z,2.20
2023-11-12T15:52:15.148Z,2.30
2023-11-12T15:54:48.328Z,2.60
2023-11-12T15:57:16.857Z,3.20
2023-11-12T15:59:43.685Z,5.83
2023-11-12T16:02:11.090Z,5.70
2023-11-12T16:04:38.266Z,5.97
2023-11-12T16:07:05.682Z,4.67
2023-11-12T16:09:32.575Z,4.63
2023-11-12T16:11:59.535Z,3.03
2023-11-12T16:14:26.464Z,3.40
2023-11-12T16:16:53.627Z,2.07
2023-11-12T16:19:20.780Z,2.90
2023-11-12T16:21:48.444Z,2.90
2023-11-12T16:24:18.516Z,3.23
2023-11-12T16:26:45.336Z,3.27
2023-11-12T16:29:14.228Z,4.77
2023-11-12T16:31:42.930Z,4.53
2023-11-12T16:34:10.017Z,4.70
2023-11-12T16:36:37.027Z,3.70
2023-11-12T16:39:04.529Z,3.30
2023-11-12T16:41:31.992Z,3.30
2023-11-12T16:43:58.820Z,3.40
2023-11-12T16:46:26.022Z,3.70
2023-11-12T16:48:52.884Z,3.70
2023-11-12T16:51:19.877Z,3.10
2023-11-12T16:53:46.729Z,4.20
2023-11-12T16:56:13.640Z,3.57
2023-11-12T16:58:41.084Z,3.70
2023-11-12T17:01:08.447Z,3.70
2023-11-12T17:03:36.094Z,4.03
2023-11-12T17:06:03.294Z,3.37
2023-11-12T17:08:30.395Z,3.53
2023-11-12T17:10:57.551Z,3.77
2023-11-12T17:13:24.487Z,3.20
2023-11-12T17:15:51.402Z,3.57
2023-11-12T17:18:18.399Z,3.53
2023-11-12T17:20:45.309Z,3.70
2023-11-12T17:23:13.126Z,3.43
2023-11-12T17:25:40.390Z,3.30
2023-11-12T17:28:07.327Z,3.63
2023-11-12T17:30:36.420Z,3.70
2023-11-12T17:33:04.108Z,3.53
2023-11-12T17:35:32.428Z,3.90
2023-11-12T17:37:59.278Z,3.63
2023-11-12T17:40:26.098Z,3.13
2023-11-12T17:42:52.909Z,3.70
2023-11-12T17:45:19.801Z,3.37
2023-11-12T17:47:46.572Z,4.10
2023-11-12T17:50:13.443Z,4.23
2023-11-12T17:52:40.218Z,3.20
2023-11-12T17:55:07.452Z,3.60
2023-11-12T17:57:35.973Z,3.40
2023-11-12T18:00:04.095Z,3.20
2023-11-12T18:02:41.108Z,3.43
2023-11-12T18:05:08.223Z,2.80
2023-11-12T18:07:34.982Z,4.03
2023-11-12T18:10:03.544Z,3.60
2023-11-12T18:12:30.455Z,3.60
2023-11-12T18:14:58.464Z,3.90
2023-11-12T18:17:26.683Z,3.80
2023-11-12T18:19:53.542Z,3.60
2023-11-12T18:22:21.567Z,3.70
2023-11-12T18:24:49.404Z,3.87
2023-11-12T18:27:16.641Z,4.13
2023-11-12T18:29:44.947Z,4.00
2023-11-12T18:32:11.772Z,3.30
2023-11-12T18:34:38.750Z,3.83
2023-11-12T18:37:05.579Z,3.77
2023-11-12T18:39:32.469Z,3.40
2023-11-12T18:41:59.900Z,3.10
2023-11-12T18:44:26.732Z,3.83
2023-11-12T18:46:53.545Z,4.00
2023-11-12T18:49:20.880Z,3.67
2023-11-12T18:51:47.970Z,3.37
2023-11-12T18:54:16.232Z,3.53
2023-11-12T18:56:47.401Z,3.50
2023-11-12T18:59:14.526Z,3.67
2023-11-12T19:01:43.245Z,3.80
2023-11-12T19:04:10.207Z,4.67
2023-11-12T19:06:52.282Z,3.87
2023-11-12T19:09:19.760Z,4.50
2023-11-12T19:11:47.848Z,5.93
2023-11-12T19:14:19.456Z,8.73
2023-11-12T19:16:47.937Z,5.30
2023-11-12T19:19:15.620Z,5.80
2023-11-12T19:21:42.539Z,5.27
2023-11-12T19:24:11.394Z,4.63
2023-11-12T19:26:38.537Z,4.80
2023-11-12T19:29:05.331Z,3.40
2023-11-12T19:31:34.072Z,2.97
2023-11-12T19:34:02.043Z,3.60
2023-11-12T19:36:29.004Z,2.90
2023-11-12T19:38:55.851Z,3.40
2023-11-12T19:41:24.620Z,2.70
2023-11-12T19:43:55.115Z,3.30
2023-11-12T19:46:22.800Z,3.00
2023-11-12T19:48:49.651Z,2.47
2023-11-12T19:51:16.548Z,2.70
2023-11-12T19:53:43.465Z,2.87
2023-11-12T19:56:10.381Z,2.33
2023-11-12T19:58:40.241Z,2.50
2023-11-12T20:01:07.955Z,2.30
2023-11-12T20:03:35.809Z,2.73
2023-11-12T20:06:03.082Z,2.67
2023-11-12T20:08:29.980Z,2.30
2023-11-12T20:10:57.104Z,2.40
2023-11-12T20:13:24.054Z,2.00
2023-11-12T20:15:52.798Z,2.40
2023-11-12T20:18:21.834Z,2.70
2023-11-12T20:20:48.740Z,2.00
2023-11-12T20:23:15.786Z,3.07
2023-11-12T20:25:42.606Z,2.07
2023-11-12T20:28:14.795Z,2.37
2023-11-12T20:30:45.466Z,1.67
2023-11-12T20:33:14.272Z,1.83
2023-11-12T20:35:41.109Z,1.63
2023-11-12T20:38:12.742Z,1.93
2023-11-12T20:40:40.109Z,2.00
2023-11-12T20:43:07.115Z,2.13
2023-11-12T20:45:34.128Z,1.83
2023-11-12T20:48:01.525Z,2.20
2023-11-12T20:50:29.428Z,1.90
2023-11-12T20:52:58.856Z,1.90
2023-11-12T20:55:25.936Z,2.00
2023-11-12T20:57:53.706Z,1.87
2023-11-12T21:00:22.722Z,2.70
2023-11-12T21:02:50.748Z,2.23
2023-11-12T21:05:19.919Z,2.27
2023-11-12T21:07:49.839Z,2.93
2023-11-12T21:10:16.828Z,2.70
2023-11-12T21:12:43.882Z,2.20
2023-11-12T21:15:13.220Z,2.27
2023-11-12T21:17:40.370Z,2.70
2023-11-12T21:20:08.016Z,2.40
2023-11-12T21:22:37.424Z,3.37
2023-11-12T21:25:05.082Z,2.40
2023-11-12T21:27:32.101Z,2.37
2023-11-12T21:30:00.277Z,2.30
2023-11-12T21:32:27.164Z,2.50
2023-11-12T21:34:53.905Z,2.67
2023-11-12T21:37:21.352Z,2.00
2023-11-12T21:39:48.118Z,2.10
2023-11-12T21:42:15.951Z,2.30
2023-11-12T21:44:42.769Z,2.67
2023-11-12T21:47:09.523Z,2.50
2023-11-12T21:49:36.658Z,2.43
2023-11-12T21:52:04.820Z,2.70
2023-11-12T21:54:31.736Z,2.57
2023-11-12T21:57:00.796Z,2.40
2023-11-12T21:59:27.586Z,2.30
2023-11-12T22:01:54.294Z,2.27
2023-11-12T22:04:22.791Z,1.90
2023-11-12T22:06:49.905Z,2.50
2023-11-12T22:09:17.697Z,2.10
2023-11-12T22:11:48.189Z,2.40
2023-11-12T22:14:15.165Z,2.40
2023-11-12T22:16:48.397Z,2.10
2023-11-12T22:19:23.614Z,2.20
2023-11-12T22:21:55.400Z,2.27
2023-11-12T22:24:35.357Z,2.17
2023-11-12T22:27:04.137Z,2.60
2023-11-12T22:29:34.642Z,2.50
2023-11-12T22:32:11.915Z,2.70
2023-11-12T22:34:46.248Z,2.43
2023-11-12T22:37:17.638Z,2.53
2023-11-12T22:39:47.794Z,2.40
2023-11-12T22:42:21.948Z,2.00
2023-11-12T22:44:48.897Z,2.30
2023-11-12T22:47:15.670Z,2.63
2023-11-12T22:49:42.577Z,2.23
2023-11-12T22:52:09.385Z,2.37
2023-11-12T22:54:36.172Z,2.40
2023-11-12T22:57:03.133Z,2.37
2023-11-12T22:59:30.455Z,2.70
2023-11-12T23:01:57.535Z,2.40
2023-11-12T23:04:25.570Z,2.13
2023-11-12T23:06:58.475Z,2.70
2023-11-12T23:09:29.880Z,2.63
2023-11-12T23:11:57.252Z,2.73
2023-11-12T23:14:26.798Z,2.33
2023-11-12T23:16:55.846Z,2.47
2023-11-12T23:19:23.571Z,2.63
2023-11-12T23:21:52.157Z,3.10
2023-11-12T23:24:22.437Z,2.60
2023-11-12T23:26:49.721Z,2.53
2023-11-12T23:29:16.426Z,2.77
2023-11-12T23:31:43.495Z,2.80
2023-11-12T23:34:10.238Z,2.80
2023-11-12T23:36:37.012Z,2.80
2023-11-12T23:39:04.087Z,2.80
2023-11-12T23:41:30.891Z,2.73
2023-11-12T23:43:57.712Z,2.80
2023-11-12T23:46:24.633Z,2.97
2023-11-12T23:48:51.610Z,3.13
2023-11-12T23:51:18.744Z,3.10
2023-11-12T23:53:46.892Z,2.83
2023-11-12T23:56:17.977Z,2.57
2023-11-12T23:58:44.711Z,2.90
